Terminal Aerodrome Forecast
Issued by NWS Omaha/Valley, NE

Home | Current Version | Previous Version | Graphics & Text | Print | Product List | Glossary On
Versions: 1 2 3 4 5 6 7 8 9 10 11 12 13 14 15 16 17 18 19 20 21 22 23 24 25 26 27 28 29 30
000
FTUS43 KOAX 272145 AAC
TAFOFK
TAF AMD
KOFK 272145Z 2722/2818 16012G20KT P6SM BKN050
     FM272300 16010KT P6SM BKN035
      TEMPO 2801/2803 BKN025
     FM280600 16007KT 5SM BR SCT009 BKN100
      TEMPO 2808/2812 2SM BR BKN009
     FM281200 32009KT 4SM BR BKN015=

USA.gov is the U.S. government's official web portal to all federal, state and local government web resources and services.